createdAt,value
2017-11-29T00:00:04.798Z,5.67
2017-11-29T00:05:07.675Z,5.40
2017-11-29T00:10:11.015Z,5.37
2017-11-29T00:15:13.702Z,6.47
2017-11-29T00:20:16.945Z,6.80
2017-11-29T00:25:19.724Z,5.77
2017-11-29T00:30:23.156Z,7.53
2017-11-29T00:35:25.777Z,9.53
2017-11-29T00:40:29.936Z,7.57
2017-11-29T00:45:32.550Z,6.83
2017-11-29T00:50:36.681Z,6.03
2017-11-29T00:55:40.063Z,6.53
2017-11-29T01:00:43.835Z,10.53
2017-11-29T01:05:46.548Z,5.40
2017-11-29T01:10:49.709Z,7.13
2017-11-29T01:15:53.181Z,6.17
2017-11-29T01:20:56.168Z,6.87
2017-11-29T01:25:58.765Z,6.27
2017-11-29T01:31:01.412Z,7.00
2017-11-29T01:36:04.004Z,7.00
2017-11-29T01:41:06.836Z,7.47
2017-11-29T01:46:09.485Z,6.77
2017-11-29T01:51:12.302Z,7.60
2017-11-29T01:56:14.968Z,6.83
2017-11-29T02:01:18.417Z,7.83
2017-11-29T02:06:27.003Z,10.80
2017-11-29T02:11:30.541Z,7.37
2017-11-29T02:16:33.949Z,6.50
2017-11-29T02:21:37.367Z,6.23
2017-11-29T02:26:40.880Z,6.90
2017-11-29T02:31:44.419Z,8.53
2017-11-29T02:36:47.120Z,6.57
2017-11-29T02:47:30.923Z,6.13
2017-11-29T02:52:34.237Z,7.37
2017-11-29T02:57:37.023Z,6.63
2017-11-29T03:02:41.233Z,9.07
2017-11-29T03:07:43.875Z,7.40
2017-11-29T03:12:47.059Z,8.23
2017-11-29T03:17:49.726Z,7.50
2017-11-29T03:22:52.683Z,9.17
2017-11-29T03:27:56.110Z,6.07
2017-11-29T03:32:59.274Z,7.00
2017-11-29T03:38:01.905Z,6.77
2017-11-29T03:43:06.078Z,5.97
2017-11-29T03:48:08.810Z,6.63
2017-11-29T03:53:12.148Z,6.43
2017-11-29T03:58:15.543Z,7.47
2017-11-29T04:03:18.906Z,5.83
2017-11-29T04:08:21.542Z,6.20
2017-11-29T04:13:24.829Z,8.77
2017-11-29T04:18:27.501Z,6.50
2017-11-29T04:23:31.990Z,6.87
2017-11-29T04:28:34.670Z,7.07
2017-11-29T04:33:37.887Z,6.77
2017-11-29T04:38:40.586Z,6.53
2017-11-29T04:43:43.942Z,6.63
2017-11-29T04:48:48.131Z,6.90
2017-11-29T04:53:51.640Z,7.73
2017-11-29T04:58:54.339Z,8.23
2017-11-29T05:03:57.641Z,7.30
2017-11-29T05:09:00.256Z,8.33
2017-11-29T05:14:03.543Z,8.40
2017-11-29T05:19:06.185Z,9.20
2017-11-29T05:24:09.348Z,10.03
2017-11-29T05:29:12.745Z,9.60
2017-11-29T05:34:16.113Z,9.57
2017-11-29T05:39:18.731Z,11.97
2017-11-29T05:44:22.088Z,11.10
2017-11-29T05:49:24.708Z,12.23
2017-11-29T05:54:28.443Z,9.97
2017-11-29T05:59:31.065Z,8.77
2017-11-29T06:04:34.443Z,13.30
2017-11-29T06:09:37.832Z,9.03
2017-11-29T06:14:40.682Z,9.70
2017-11-29T06:19:43.305Z,11.10
2017-11-29T06:24:46.069Z,10.83
2017-11-29T06:29:49.470Z,12.33
2017-11-29T06:34:52.327Z,12.03
2017-11-29T06:39:54.999Z,11.80
2017-11-29T06:44:58.465Z,10.03
2017-11-29T06:50:01.043Z,11.40
2017-11-29T06:55:04.619Z,14.80
2017-11-29T07:00:08.014Z,14.43
2017-11-29T07:05:10.966Z,15.47
2017-11-29T07:10:13.594Z,11.07
2017-11-29T07:15:17.077Z,13.60
2017-11-29T07:20:19.695Z,12.20
2017-11-29T07:25:22.497Z,14.57
2017-11-29T07:30:25.107Z,12.37
2017-11-29T07:35:28.073Z,13.20
2017-11-29T07:40:31.460Z,13.40
2017-11-29T07:45:34.204Z,17.37
2017-11-29T07:50:36.809Z,15.77
2017-11-29T07:55:39.963Z,16.23
2017-11-29T08:00:42.607Z,15.20
2017-11-29T08:05:46.616Z,12.17
2017-11-29T08:10:51.444Z,25.17
2017-11-29T08:15:56.936Z,13.83
2017-11-29T08:21:00.314Z,13.70
2017-11-29T08:26:03.585Z,12.20
2017-11-29T08:31:06.974Z,12.47
2017-11-29T08:36:10.744Z,27.07
2017-11-29T08:41:13.369Z,13.10
2017-11-29T08:46:16.826Z,10.33
2017-11-29T08:51:21.071Z,9.03
2017-11-29T08:56:25.217Z,8.70
2017-11-29T09:01:27.836Z,6.27
2017-11-29T09:06:31.819Z,7.10
2017-11-29T09:11:34.439Z,8.30
2017-11-29T09:16:38.507Z,6.33
2017-11-29T09:21:41.142Z,6.70
2017-11-29T09:26:44.794Z,6.87
2017-11-29T09:31:48.507Z,6.63
2017-11-29T09:36:52.543Z,7.07
2017-11-29T09:41:56.173Z,7.40
2017-11-29T09:46:58.937Z,7.83
2017-11-29T09:52:01.596Z,7.20
2017-11-29T09:57:04.884Z,7.53
2017-11-29T10:02:07.714Z,6.60
2017-11-29T10:07:11.141Z,8.27
2017-11-29T10:12:13.760Z,6.33
2017-11-29T10:17:16.433Z,6.07
2017-11-29T10:22:19.158Z,7.03
2017-11-29T10:27:22.341Z,6.53
2017-11-29T10:32:25.247Z,6.10
2017-11-29T10:37:28.309Z,5.47
2017-11-29T10:42:32.764Z,4.87
2017-11-29T10:47:36.946Z,5.40
2017-11-29T10:52:40.420Z,4.77
2017-11-29T10:57:45.336Z,5.20
2017-11-29T11:02:47.968Z,6.63
2017-11-29T11:07:51.897Z,7.77
2017-11-29T11:12:55.416Z,6.30
2017-11-29T11:17:59.407Z,4.83
2017-11-29T11:23:03.141Z,4.03
2017-11-29T11:28:06.348Z,6.03
2017-11-29T11:33:09.052Z,6.50
2017-11-29T11:38:12.457Z,7.13
2017-11-29T11:43:15.259Z,4.60
2017-11-29T11:48:18.770Z,4.70
2017-11-29T11:53:21.398Z,5.63
2017-11-29T11:58:25.052Z,7.93
2017-11-29T12:03:27.705Z,6.40
2017-11-29T12:08:32.223Z,4.40
2017-11-29T12:13:34.876Z,3.70
2017-11-29T12:18:38.520Z,5.03
2017-11-29T12:23:41.163Z,4.37
2017-11-29T12:28:44.012Z,4.73
2017-11-29T13:58:18.889Z,10.73
2017-11-29T14:03:23.261Z,6.20
2017-11-29T14:08:25.847Z,4.70
2017-11-29T14:13:28.715Z,5.13
2017-11-29T14:18:31.332Z,4.50
2017-11-29T14:23:34.954Z,6.90
2017-11-29T14:28:38.346Z,5.90
2017-11-29T14:33:41.113Z,6.40
2017-11-29T14:38:43.740Z,6.90
2017-11-29T14:43:47.321Z,7.30
2017-11-29T14:48:49.965Z,16.90
2017-11-29T14:53:52.645Z,9.93
2017-11-29T14:58:55.351Z,8.37
2017-11-29T15:03:58.061Z,8.37
2017-11-29T15:09:00.799Z,16.80
2017-11-29T15:14:03.607Z,9.10
2017-11-29T15:19:06.259Z,17.50
2017-11-29T15:24:12.009Z,10.03
2017-11-29T15:29:14.623Z,6.90
2017-11-29T15:34:17.271Z,9.03
2017-11-29T15:39:19.972Z,9.17
2017-11-29T15:44:23.605Z,10.87
2017-11-29T15:49:26.298Z,7.70
2017-11-29T15:54:29.083Z,9.10
2017-11-29T15:59:32.495Z,7.83
2017-11-29T16:04:36.340Z,19.07
2017-11-29T16:09:39.732Z,24.80
2017-11-29T16:14:43.298Z,18.10
2017-11-29T16:19:45.966Z,18.53
2017-11-29T16:24:49.457Z,20.93
2017-11-29T16:29:53.636Z,21.63
2017-11-29T16:34:56.544Z,25.53
2017-11-29T16:39:59.178Z,20.87
2017-11-29T16:45:02.443Z,19.30
2017-11-29T16:50:05.856Z,17.47
2017-11-29T16:55:09.610Z,20.20
2017-11-29T17:00:12.264Z,20.67
2017-11-29T17:05:15.920Z,20.93
2017-11-29T17:10:18.588Z,16.93
2017-11-29T17:15:21.489Z,19.73
2017-11-29T17:20:24.887Z,21.40
2017-11-29T17:25:27.548Z,15.50
2017-11-29T17:30:30.323Z,18.53
2017-11-29T17:35:34.681Z,21.30
2017-11-29T17:40:38.304Z,19.20
2017-11-29T17:45:42.156Z,20.17
2017-11-29T17:50:44.945Z,21.13
2017-11-29T17:55:47.764Z,18.90
2017-11-29T18:00:50.638Z,20.67
2017-11-29T18:05:54.091Z,20.30
2017-11-29T18:10:56.820Z,20.23
2017-11-29T18:16:00.595Z,19.73
2017-11-29T18:21:03.383Z,19.87
2017-11-29T18:26:08.541Z,20.67
2017-11-29T18:31:11.240Z,19.53
2017-11-29T18:36:14.453Z,23.60
2017-11-29T18:41:17.080Z,17.33
2017-11-29T18:46:20.461Z,16.67
2017-11-29T18:51:23.847Z,16.90
2017-11-29T18:56:27.037Z,18.27
2017-11-29T19:01:29.974Z,19.03
2017-11-29T19:06:33.414Z,15.63
2017-11-29T19:11:36.106Z,16.53
2017-11-29T19:16:39.624Z,17.13
2017-11-29T19:21:43.105Z,19.27
2017-11-29T19:26:46.673Z,20.57
2017-11-29T19:31:50.284Z,21.93
2017-11-29T19:36:54.848Z,23.73
2017-11-29T19:41:57.570Z,20.93
2017-11-29T19:47:00.986Z,20.17
2017-11-29T19:52:03.661Z,19.63
2017-11-29T19:57:06.670Z,18.77
2017-11-29T20:02:09.357Z,18.50
2017-11-29T20:07:13.765Z,20.27
2017-11-29T20:12:16.520Z,21.83
2017-11-29T20:17:20.353Z,23.53
2017-11-29T20:22:23.063Z,23.70
2017-11-29T20:27:26.480Z,25.13
2017-11-29T20:32:29.180Z,24.40
2017-11-29T20:37:32.803Z,20.40
2017-11-29T20:42:35.475Z,22.33
2017-11-29T20:47:40.332Z,25.40
2017-11-29T20:52:54.819Z,24.07
2017-11-29T20:57:57.917Z,24.07
2017-11-29T21:03:01.536Z,23.63
2017-11-29T21:08:05.056Z,23.20
2017-11-29T21:13:07.700Z,25.07
2017-11-29T21:18:11.044Z,22.53
2017-11-29T21:23:14.498Z,22.07
2017-11-29T21:28:17.189Z,24.40
2017-11-29T21:33:19.873Z,24.57
2017-11-29T21:38:23.772Z,25.63
2017-11-29T21:43:26.930Z,27.50
2017-11-29T21:48:30.241Z,27.00
2017-11-29T21:53:33.662Z,25.27
2017-11-29T21:58:36.873Z,25.23
2017-11-29T22:03:39.571Z,27.93
2017-11-29T22:08:43.095Z,108.90
2017-11-29T22:13:45.896Z,30.83
2017-11-29T22:18:48.945Z,26.37
2017-11-29T22:23:51.908Z,27.27
2017-11-29T22:28:54.898Z,26.50
2017-11-29T22:33:58.340Z,21.67
2017-11-29T22:39:01.808Z,29.57
2017-11-29T22:44:04.459Z,26.97
2017-11-29T22:49:07.944Z,22.17
2017-11-29T22:54:11.569Z,24.00
2017-11-29T22:59:15.317Z,23.73
2017-11-29T23:04:19.834Z,21.47
2017-11-29T23:09:23.991Z,22.03
2017-11-29T23:14:31.913Z,24.23
2017-11-29T23:19:37.880Z,26.90
2017-11-29T23:24:41.233Z,24.63
2017-11-29T23:29:44.732Z,20.03
2017-11-29T23:34:47.344Z,32.17
2017-11-29T23:39:50.538Z,30.83
2017-11-29T23:44:53.249Z,29.20
2017-11-29T23:49:56.475Z,31.93
2017-11-29T23:54:59.192Z,29.77
